sensor_id;sensor_type;location;lat;lon;timestamp;P1;durP1;ratioP1;P2;durP2;ratioP2
73283;SDS011;61519;60.050;18.582;2022-08-01T00:00:00;2.50;;;0.70;;
73283;SDS011;61519;60.050;18.582;2022-08-01T00:02:27;2.58;;;0.98;;
73283;SDS011;61519;60.050;18.582;2022-08-01T00:04:53;3.60;;;0.90;;
73283;SDS011;61519;60.050;18.582;2022-08-01T00:07:19;2.35;;;1.05;;
73283;SDS011;61519;60.050;18.582;2022-08-01T00:09:45;3.03;;;1.00;;
73283;SDS011;61519;60.050;18.582;2022-08-01T00:12:10;2.65;;;0.90;;
73283;SDS011;61519;60.050;18.582;2022-08-01T00:14:36;4.27;;;1.13;;
73283;SDS011;61519;60.050;18.582;2022-08-01T00:17:02;2.97;;;1.13;;
73283;SDS011;61519;60.050;18.582;2022-08-01T00:19:27;2.77;;;1.10;;
73283;SDS011;61519;60.050;18.582;2022-08-01T00:21:53;2.70;;;0.90;;
73283;SDS011;61519;60.050;18.582;2022-08-01T00:24:18;2.40;;;1.00;;
73283;SDS011;61519;60.050;18.582;2022-08-01T00:26:44;3.50;;;1.00;;
73283;SDS011;61519;60.050;18.582;2022-08-01T00:29:09;3.00;;;0.90;;
73283;SDS011;61519;60.050;18.582;2022-08-01T00:31:37;2.33;;;0.93;;
73283;SDS011;61519;60.050;18.582;2022-08-01T00:34:03;2.97;;;1.00;;
73283;SDS011;61519;60.050;18.582;2022-08-01T00:36:28;4.63;;;1.47;;
73283;SDS011;61519;60.050;18.582;2022-08-01T00:38:53;3.10;;;1.20;;
73283;SDS011;61519;60.050;18.582;2022-08-01T00:41:19;2.28;;;0.70;;
73283;SDS011;61519;60.050;18.582;2022-08-01T00:43:45;4.50;;;1.40;;
73283;SDS011;61519;60.050;18.582;2022-08-01T00:46:10;3.53;;;1.05;;
73283;SDS011;61519;60.050;18.582;2022-08-01T00:48:36;2.17;;;0.77;;
73283;SDS011;61519;60.050;18.582;2022-08-01T00:51:03;3.53;;;0.90;;
73283;SDS011;61519;60.050;18.582;2022-08-01T00:53:29;7.68;;;1.30;;
73283;SDS011;61519;60.050;18.582;2022-08-01T00:55:54;2.20;;;0.85;;
73283;SDS011;61519;60.050;18.582;2022-08-01T00:58:20;4.97;;;1.07;;
73283;SDS011;61519;60.050;18.582;2022-08-01T01:00:46;2.60;;;0.90;;
73283;SDS011;61519;60.050;18.582;2022-08-01T01:03:11;3.30;;;1.00;;
73283;SDS011;61519;60.050;18.582;2022-08-01T01:05:44;2.72;;;0.88;;
73283;SDS011;61519;60.050;18.582;2022-08-01T01:08:15;4.88;;;0.88;;
73283;SDS011;61519;60.050;18.582;2022-08-01T01:10:46;4.10;;;1.00;;
73283;SDS011;61519;60.050;18.582;2022-08-01T01:16:01;3.40;;;0.90;;
73283;SDS011;61519;60.050;18.582;2022-08-01T01:18:35;3.13;;;0.97;;
73283;SDS011;61519;60.050;18.582;2022-08-01T01:23:57;2.78;;;1.00;;
73283;SDS011;61519;60.050;18.582;2022-08-01T01:29:22;3.20;;;1.20;;
73283;SDS011;61519;60.050;18.582;2022-08-01T01:34:21;2.50;;;0.82;;
73283;SDS011;61519;60.050;18.582;2022-08-01T01:36:47;4.85;;;1.00;;
73283;SDS011;61519;60.050;18.582;2022-08-01T01:39:13;2.80;;;1.00;;
73283;SDS011;61519;60.050;18.582;2022-08-01T01:41:39;2.75;;;0.98;;
73283;SDS011;61519;60.050;18.582;2022-08-01T01:44:05;2.70;;;1.20;;
73283;SDS011;61519;60.050;18.582;2022-08-01T01:46:31;2.28;;;0.75;;
73283;SDS011;61519;60.050;18.582;2022-08-01T01:48:58;2.88;;;1.20;;
73283;SDS011;61519;60.050;18.582;2022-08-01T01:51:24;3.80;;;1.00;;
73283;SDS011;61519;60.050;18.582;2022-08-01T01:53:51;4.10;;;0.80;;
73283;SDS011;61519;60.050;18.582;2022-08-01T01:56:18;6.15;;;1.30;;
73283;SDS011;61519;60.050;18.582;2022-08-01T01:58:45;3.58;;;0.82;;
73283;SDS011;61519;60.050;18.582;2022-08-01T02:01:17;2.88;;;1.30;;
73283;SDS011;61519;60.050;18.582;2022-08-01T02:03:43;2.77;;;1.00;;
73283;SDS011;61519;60.050;18.582;2022-08-01T02:06:11;3.22;;;0.85;;
73283;SDS011;61519;60.050;18.582;2022-08-01T02:08:38;4.35;;;1.10;;
73283;SDS011;61519;60.050;18.582;2022-08-01T02:11:05;2.28;;;0.90;;
73283;SDS011;61519;60.050;18.582;2022-08-01T02:13:43;3.03;;;1.38;;
73283;SDS011;61519;60.050;18.582;2022-08-01T02:16:21;2.10;;;0.80;;
73283;SDS011;61519;60.050;18.582;2022-08-01T02:18:49;3.85;;;1.10;;
73283;SDS011;61519;60.050;18.582;2022-08-01T02:21:16;3.05;;;1.02;;
73283;SDS011;61519;60.050;18.582;2022-08-01T02:23:45;2.47;;;0.80;;
73283;SDS011;61519;60.050;18.582;2022-08-01T02:26:13;6.30;;;1.15;;
73283;SDS011;61519;60.050;18.582;2022-08-01T02:29:13;2.60;;;1.20;;
73283;SDS011;61519;60.050;18.582;2022-08-01T02:31:34;4.60;;;1.05;;
73283;SDS011;61519;60.050;18.582;2022-08-01T02:34:02;3.63;;;1.13;;
73283;SDS011;61519;60.050;18.582;2022-08-01T02:36:30;4.43;;;1.23;;
73283;SDS011;61519;60.050;18.582;2022-08-01T02:38:58;3.20;;;1.00;;
73283;SDS011;61519;60.050;18.582;2022-08-01T02:41:26;3.67;;;1.20;;
73283;SDS011;61519;60.050;18.582;2022-08-01T02:43:52;7.28;;;1.30;;
73283;SDS011;61519;60.050;18.582;2022-08-01T02:46:40;3.28;;;1.00;;
73283;SDS011;61519;60.050;18.582;2022-08-01T02:49:09;3.37;;;1.10;;
73283;SDS011;61519;60.050;18.582;2022-08-01T02:51:37;2.58;;;1.10;;
73283;SDS011;61519;60.050;18.582;2022-08-01T02:54:05;5.10;;;1.00;;
73283;SDS011;61519;60.050;18.582;2022-08-01T02:56:31;2.90;;;1.10;;
73283;SDS011;61519;60.050;18.582;2022-08-01T02:59:04;2.83;;;1.20;;
73283;SDS011;61519;60.050;18.582;2022-08-01T03:01:36;6.43;;;1.47;;
73283;SDS011;61519;60.050;18.582;2022-08-01T03:04:03;3.38;;;1.17;;
73283;SDS011;61519;60.050;18.582;2022-08-01T03:06:30;4.88;;;1.00;;
73283;SDS011;61519;60.050;18.582;2022-08-01T03:08:57;2.30;;;0.90;;
73283;SDS011;61519;60.050;18.582;2022-08-01T03:11:23;2.85;;;1.02;;
73283;SDS011;61519;60.050;18.582;2022-08-01T03:13:50;2.40;;;0.90;;
73283;SDS011;61519;60.050;18.582;2022-08-01T03:16:17;5.22;;;1.10;;
73283;SDS011;61519;60.050;18.582;2022-08-01T03:18:43;5.03;;;1.00;;
73283;SDS011;61519;60.050;18.582;2022-08-01T03:21:09;2.63;;;1.02;;
73283;SDS011;61519;60.050;18.582;2022-08-01T03:23:37;2.80;;;1.10;;
73283;SDS011;61519;60.050;18.582;2022-08-01T03:26:03;4.22;;;1.08;;
73283;SDS011;61519;60.050;18.582;2022-08-01T03:28:29;2.08;;;0.90;;
73283;SDS011;61519;60.050;18.582;2022-08-01T03:30:55;2.30;;;1.00;;
73283;SDS011;61519;60.050;18.582;2022-08-01T03:33:21;3.03;;;1.23;;
73283;SDS011;61519;60.050;18.582;2022-08-01T03:35:47;2.77;;;1.00;;
73283;SDS011;61519;60.050;18.582;2022-08-01T03:38:17;5.38;;;1.20;;
73283;SDS011;61519;60.050;18.582;2022-08-01T03:40:45;2.40;;;0.90;;
73283;SDS011;61519;60.050;18.582;2022-08-01T03:43:15;3.17;;;1.13;;
73283;SDS011;61519;60.050;18.582;2022-08-01T03:45:46;5.20;;;1.10;;
73283;SDS011;61519;60.050;18.582;2022-08-01T03:48:18;3.45;;;0.90;;
73283;SDS011;61519;60.050;18.582;2022-08-01T03:50:48;3.65;;;1.02;;
73283;SDS011;61519;60.050;18.582;2022-08-01T03:53:15;4.53;;;1.40;;
73283;SDS011;61519;60.050;18.582;2022-08-01T03:55:50;2.10;;;0.80;;
73283;SDS011;61519;60.050;18.582;2022-08-01T03:58:16;3.33;;;1.20;;
73283;SDS011;61519;60.050;18.582;2022-08-01T04:00:41;4.78;;;1.05;;
73283;SDS011;61519;60.050;18.582;2022-08-01T04:03:08;6.75;;;1.17;;
73283;SDS011;61519;60.050;18.582;2022-08-01T04:05:34;3.88;;;1.23;;
73283;SDS011;61519;60.050;18.582;2022-08-01T04:08:00;4.30;;;1.10;;
73283;SDS011;61519;60.050;18.582;2022-08-01T04:10:27;2.83;;;1.05;;
73283;SDS011;61519;60.050;18.582;2022-08-01T04:12:53;3.30;;;1.20;;
73283;SDS011;61519;60.050;18.582;2022-08-01T04:15:19;3.40;;;0.93;;
73283;SDS011;61519;60.050;18.582;2022-08-01T04:17:45;3.87;;;1.60;;
73283;SDS011;61519;60.050;18.582;2022-08-01T04:20:11;4.38;;;0.93;;
73283;SDS011;61519;60.050;18.582;2022-08-01T04:22:36;2.90;;;1.33;;
73283;SDS011;61519;60.050;18.582;2022-08-01T04:25:03;3.88;;;1.33;;
73283;SDS011;61519;60.050;18.582;2022-08-01T04:27:36;3.50;;;1.13;;
73283;SDS011;61519;60.050;18.582;2022-08-01T04:30:04;3.27;;;1.00;;
73283;SDS011;61519;60.050;18.582;2022-08-01T04:32:35;2.38;;;1.00;;
73283;SDS011;61519;60.050;18.582;2022-08-01T04:35:04;3.88;;;1.00;;
73283;SDS011;61519;60.050;18.582;2022-08-01T04:37:32;2.92;;;1.02;;
73283;SDS011;61519;60.050;18.582;2022-08-01T04:40:02;3.58;;;1.08;;
73283;SDS011;61519;60.050;18.582;2022-08-01T04:42:30;3.00;;;1.10;;
73283;SDS011;61519;60.050;18.582;2022-08-01T04:44:57;3.05;;;1.10;;
73283;SDS011;61519;60.050;18.582;2022-08-01T04:47:22;2.65;;;1.25;;
73283;SDS011;61519;60.050;18.582;2022-08-01T04:49:48;1.90;;;0.80;;
73283;SDS011;61519;60.050;18.582;2022-08-01T04:52:14;4.87;;;1.43;;
73283;SDS011;61519;60.050;18.582;2022-08-01T04:54:39;3.65;;;1.20;;
73283;SDS011;61519;60.050;18.582;2022-08-01T04:57:05;3.95;;;1.20;;
73283;SDS011;61519;60.050;18.582;2022-08-01T04:59:35;2.53;;;1.10;;
73283;SDS011;61519;60.050;18.582;2022-08-01T05:04:33;2.40;;;1.00;;
73283;SDS011;61519;60.050;18.582;2022-08-01T05:06:59;3.80;;;1.23;;
73283;SDS011;61519;60.050;18.582;2022-08-01T05:09:25;3.63;;;0.90;;
73283;SDS011;61519;60.050;18.582;2022-08-01T05:11:51;3.03;;;0.90;;
73283;SDS011;61519;60.050;18.582;2022-08-01T05:14:16;2.87;;;1.10;;
73283;SDS011;61519;60.050;18.582;2022-08-01T05:16:42;3.40;;;1.00;;
73283;SDS011;61519;60.050;18.582;2022-08-01T05:19:07;2.42;;;0.93;;
73283;SDS011;61519;60.050;18.582;2022-08-01T05:21:33;3.85;;;0.90;;
73283;SDS011;61519;60.050;18.582;2022-08-01T05:23:59;2.55;;;0.95;;
73283;SDS011;61519;60.050;18.582;2022-08-01T05:26:24;3.07;;;1.10;;
73283;SDS011;61519;60.050;18.582;2022-08-01T05:28:50;3.43;;;0.93;;
73283;SDS011;61519;60.050;18.582;2022-08-01T05:31:15;3.30;;;1.23;;
73283;SDS011;61519;60.050;18.582;2022-08-01T05:33:41;2.20;;;0.90;;
73283;SDS011;61519;60.050;18.582;2022-08-01T05:36:06;3.33;;;1.20;;
73283;SDS011;61519;60.050;18.582;2022-08-01T05:38:32;2.33;;;0.87;;
73283;SDS011;61519;60.050;18.582;2022-08-01T05:40:57;2.53;;;0.80;;
73283;SDS011;61519;60.050;18.582;2022-08-01T05:43:22;2.75;;;0.90;;
73283;SDS011;61519;60.050;18.582;2022-08-01T05:45:48;2.90;;;1.00;;
73283;SDS011;61519;60.050;18.582;2022-08-01T05:48:13;3.80;;;1.30;;
73283;SDS011;61519;60.050;18.582;2022-08-01T05:50:39;5.07;;;1.03;;
73283;SDS011;61519;60.050;18.582;2022-08-01T05:53:04;2.65;;;1.27;;
73283;SDS011;61519;60.050;18.582;2022-08-01T05:55:30;3.50;;;1.10;;
73283;SDS011;61519;60.050;18.582;2022-08-01T05:57:55;3.10;;;1.10;;
73283;SDS011;61519;60.050;18.582;2022-08-01T06:00:21;4.72;;;1.20;;
73283;SDS011;61519;60.050;18.582;2022-08-01T06:02:46;4.47;;;1.10;;
73283;SDS011;61519;60.050;18.582;2022-08-01T06:05:12;3.03;;;0.90;;
73283;SDS011;61519;60.050;18.582;2022-08-01T06:07:37;3.03;;;1.50;;
73283;SDS011;61519;60.050;18.582;2022-08-01T06:10:04;5.15;;;1.88;;
73283;SDS011;61519;60.050;18.582;2022-08-01T06:12:32;3.55;;;1.55;;
73283;SDS011;61519;60.050;18.582;2022-08-01T06:14:58;3.90;;;1.40;;
73283;SDS011;61519;60.050;18.582;2022-08-01T06:17:23;4.37;;;1.90;;
73283;SDS011;61519;60.050;18.582;2022-08-01T06:19:49;4.70;;;2.13;;
73283;SDS011;61519;60.050;18.582;2022-08-01T06:22:14;3.67;;;2.10;;
73283;SDS011;61519;60.050;18.582;2022-08-01T06:24:40;4.43;;;2.63;;
73283;SDS011;61519;60.050;18.582;2022-08-01T06:27:05;5.80;;;2.70;;
73283;SDS011;61519;60.050;18.582;2022-08-01T06:29:31;4.20;;;2.80;;
73283;SDS011;61519;60.050;18.582;2022-08-01T06:31:57;4.80;;;2.85;;
73283;SDS011;61519;60.050;18.582;2022-08-01T06:34:23;4.80;;;3.97;;
73283;SDS011;61519;60.050;18.582;2022-08-01T06:36:48;4.90;;;3.90;;
73283;SDS011;61519;60.050;18.582;2022-08-01T06:39:14;5.68;;;5.07;;
73283;SDS011;61519;60.050;18.582;2022-08-01T06:41:39;5.53;;;5.03;;
73283;SDS011;61519;60.050;18.582;2022-08-01T06:44:06;5.63;;;4.70;;
73283;SDS011;61519;60.050;18.582;2022-08-01T06:46:32;5.87;;;5.30;;
73283;SDS011;61519;60.050;18.582;2022-08-01T06:48:58;6.22;;;5.63;;
73283;SDS011;61519;60.050;18.582;2022-08-01T06:51:23;5.73;;;5.23;;
73283;SDS011;61519;60.050;18.582;2022-08-01T06:53:49;5.33;;;4.33;;
73283;SDS011;61519;60.050;18.582;2022-08-01T06:56:14;4.15;;;3.75;;
73283;SDS011;61519;60.050;18.582;2022-08-01T06:58:40;4.33;;;2.83;;
73283;SDS011;61519;60.050;18.582;2022-08-01T07:01:05;8.00;;;2.53;;
73283;SDS011;61519;60.050;18.582;2022-08-01T07:03:32;5.43;;;2.42;;
73283;SDS011;61519;60.050;18.582;2022-08-01T07:05:58;4.40;;;1.92;;
73283;SDS011;61519;60.050;18.582;2022-08-01T07:08:24;4.30;;;2.30;;
73283;SDS011;61519;60.050;18.582;2022-08-01T07:10:49;5.17;;;1.97;;
73283;SDS011;61519;60.050;18.582;2022-08-01T07:13:14;4.45;;;1.38;;
73283;SDS011;61519;60.050;18.582;2022-08-01T07:15:45;5.57;;;1.30;;
73283;SDS011;61519;60.050;18.582;2022-08-01T07:18:11;3.10;;;1.20;;
73283;SDS011;61519;60.050;18.582;2022-08-01T07:20:37;3.80;;;1.88;;
73283;SDS011;61519;60.050;18.582;2022-08-01T07:23:02;3.15;;;1.67;;
73283;SDS011;61519;60.050;18.582;2022-08-01T07:25:28;3.80;;;1.00;;
73283;SDS011;61519;60.050;18.582;2022-08-01T07:27:53;3.03;;;2.03;;
73283;SDS011;61519;60.050;18.582;2022-08-01T07:30:19;2.90;;;1.30;;
73283;SDS011;61519;60.050;18.582;2022-08-01T07:32:44;3.17;;;1.83;;
73283;SDS011;61519;60.050;18.582;2022-08-01T07:35:10;3.70;;;1.60;;
73283;SDS011;61519;60.050;18.582;2022-08-01T07:37:35;3.08;;;2.10;;
73283;SDS011;61519;60.050;18.582;2022-08-01T07:40:01;3.07;;;1.50;;
73283;SDS011;61519;60.050;18.582;2022-08-01T07:42:29;3.08;;;1.65;;
73283;SDS011;61519;60.050;18.582;2022-08-01T07:44:54;3.37;;;1.63;;
73283;SDS011;61519;60.050;18.582;2022-08-01T07:47:26;4.50;;;2.17;;
73283;SDS011;61519;60.050;18.582;2022-08-01T07:49:52;2.50;;;1.25;;
73283;SDS011;61519;60.050;18.582;2022-08-01T07:52:23;3.38;;;2.20;;
73283;SDS011;61519;60.050;18.582;2022-08-01T07:54:49;2.97;;;1.30;;
73283;SDS011;61519;60.050;18.582;2022-08-01T07:57:14;4.03;;;1.23;;
73283;SDS011;61519;60.050;18.582;2022-08-01T07:59:39;2.80;;;1.57;;
73283;SDS011;61519;60.050;18.582;2022-08-01T08:02:05;3.50;;;1.80;;
73283;SDS011;61519;60.050;18.582;2022-08-01T08:04:30;5.07;;;1.40;;
73283;SDS011;61519;60.050;18.582;2022-08-01T08:06:56;2.73;;;1.47;;
73283;SDS011;61519;60.050;18.582;2022-08-01T08:09:21;2.23;;;1.00;;
73283;SDS011;61519;60.050;18.582;2022-08-01T08:11:47;3.20;;;1.55;;
73283;SDS011;61519;60.050;18.582;2022-08-01T08:14:13;2.47;;;1.33;;
73283;SDS011;61519;60.050;18.582;2022-08-01T08:16:38;2.72;;;1.17;;
73283;SDS011;61519;60.050;18.582;2022-08-01T08:19:04;2.43;;;1.07;;
73283;SDS011;61519;60.050;18.582;2022-08-01T08:21:29;6.43;;;1.60;;
73283;SDS011;61519;60.050;18.582;2022-08-01T08:23:55;3.80;;;1.85;;
73283;SDS011;61519;60.050;18.582;2022-08-01T08:26:39;3.17;;;1.23;;
73283;SDS011;61519;60.050;18.582;2022-08-01T08:29:05;2.95;;;1.55;;
73283;SDS011;61519;60.050;18.582;2022-08-01T08:31:31;3.03;;;1.50;;
73283;SDS011;61519;60.050;18.582;2022-08-01T08:33:56;2.87;;;1.20;;
73283;SDS011;61519;60.050;18.582;2022-08-01T08:36:22;2.63;;;0.90;;
73283;SDS011;61519;60.050;18.582;2022-08-01T08:38:47;4.10;;;1.50;;
73283;SDS011;61519;60.050;18.582;2022-08-01T08:41:13;2.42;;;1.10;;
73283;SDS011;61519;60.050;18.582;2022-08-01T08:43:39;3.90;;;1.27;;
73283;SDS011;61519;60.050;18.582;2022-08-01T08:46:05;5.75;;;1.45;;
73283;SDS011;61519;60.050;18.582;2022-08-01T08:48:30;3.47;;;1.37;;
73283;SDS011;61519;60.050;18.582;2022-08-01T08:50:56;2.47;;;1.20;;
73283;SDS011;61519;60.050;18.582;2022-08-01T08:53:23;3.03;;;1.70;;
73283;SDS011;61519;60.050;18.582;2022-08-01T08:55:48;5.07;;;1.37;;
73283;SDS011;61519;60.050;18.582;2022-08-01T08:58:14;2.50;;;1.63;;
73283;SDS011;61519;60.050;18.582;2022-08-01T09:00:42;2.75;;;1.30;;
73283;SDS011;61519;60.050;18.582;2022-08-01T09:03:08;2.73;;;1.10;;
73283;SDS011;61519;60.050;18.582;2022-08-01T09:05:34;2.63;;;1.33;;
73283;SDS011;61519;60.050;18.582;2022-08-01T09:07:59;3.05;;;1.63;;
73283;SDS011;61519;60.050;18.582;2022-08-01T09:10:25;3.50;;;1.80;;
73283;SDS011;61519;60.050;18.582;2022-08-01T09:13:10;2.75;;;1.40;;
73283;SDS011;61519;60.050;18.582;2022-08-01T09:15:47;2.30;;;1.08;;
73283;SDS011;61519;60.050;18.582;2022-08-01T09:18:28;4.90;;;1.60;;
73283;SDS011;61519;60.050;18.582;2022-08-01T09:21:08;3.10;;;1.30;;
73283;SDS011;61519;60.050;18.582;2022-08-01T09:23:36;4.22;;;1.17;;
73283;SDS011;61519;60.050;18.582;2022-08-01T09:26:07;3.25;;;1.38;;
73283;SDS011;61519;60.050;18.582;2022-08-01T09:28:34;3.38;;;1.95;;
73283;SDS011;61519;60.050;18.582;2022-08-01T09:31:05;3.53;;;2.17;;
73283;SDS011;61519;60.050;18.582;2022-08-01T09:36:23;3.03;;;1.55;;
73283;SDS011;61519;60.050;18.582;2022-08-01T09:38:50;2.42;;;1.13;;
73283;SDS011;61519;60.050;18.582;2022-08-01T09:41:17;3.65;;;1.30;;
73283;SDS011;61519;60.050;18.582;2022-08-01T09:43:54;2.83;;;1.40;;
73283;SDS011;61519;60.050;18.582;2022-08-01T09:46:19;3.80;;;1.30;;
73283;SDS011;61519;60.050;18.582;2022-08-01T09:51:39;3.97;;;2.33;;
73283;SDS011;61519;60.050;18.582;2022-08-01T09:54:05;3.07;;;1.93;;
73283;SDS011;61519;60.050;18.582;2022-08-01T09:56:35;3.30;;;1.92;;
73283;SDS011;61519;60.050;18.582;2022-08-01T09:59:02;3.53;;;2.78;;
73283;SDS011;61519;60.050;18.582;2022-08-01T10:01:28;4.13;;;1.85;;
73283;SDS011;61519;60.050;18.582;2022-08-01T10:04:19;3.20;;;2.00;;
73283;SDS011;61519;60.050;18.582;2022-08-01T10:06:47;3.00;;;1.60;;
73283;SDS011;61519;60.050;18.582;2022-08-01T10:09:30;2.70;;;1.70;;
73283;SDS011;61519;60.050;18.582;2022-08-01T10:11:58;3.50;;;2.10;;
73283;SDS011;61519;60.050;18.582;2022-08-01T10:14:26;4.65;;;1.95;;
73283;SDS011;61519;60.050;18.582;2022-08-01T10:16:52;4.57;;;1.90;;
73283;SDS011;61519;60.050;18.582;2022-08-01T10:19:18;3.55;;;2.53;;
73283;SDS011;61519;60.050;18.582;2022-08-01T10:21:47;3.28;;;2.30;;
73283;SDS011;61519;60.050;18.582;2022-08-01T10:24:15;4.25;;;2.42;;
73283;SDS011;61519;60.050;18.582;2022-08-01T10:26:41;4.32;;;2.90;;
73283;SDS011;61519;60.050;18.582;2022-08-01T10:29:08;3.50;;;2.50;;
73283;SDS011;61519;60.050;18.582;2022-08-01T10:31:34;5.47;;;2.70;;
73283;SDS011;61519;60.050;18.582;2022-08-01T10:34:00;4.05;;;3.33;;
73283;SDS011;61519;60.050;18.582;2022-08-01T10:36:25;3.63;;;2.90;;
73283;SDS011;61519;60.050;18.582;2022-08-01T10:38:53;4.05;;;3.00;;
73283;SDS011;61519;60.050;18.582;2022-08-01T10:41:20;3.70;;;3.03;;
73283;SDS011;61519;60.050;18.582;2022-08-01T10:43:46;4.00;;;3.17;;
73283;SDS011;61519;60.050;18.582;2022-08-01T10:46:11;3.97;;;2.88;;
73283;SDS011;61519;60.050;18.582;2022-08-01T10:48:49;5.63;;;2.67;;
73283;SDS011;61519;60.050;18.582;2022-08-01T10:51:28;3.80;;;3.33;;
73283;SDS011;61519;60.050;18.582;2022-08-01T10:53:54;5.43;;;2.17;;
73283;SDS011;61519;60.050;18.582;2022-08-01T10:56:20;3.58;;;2.85;;
73283;SDS011;61519;60.050;18.582;2022-08-01T10:58:47;3.50;;;2.05;;
73283;SDS011;61519;60.050;18.582;2022-08-01T11:01:23;6.45;;;2.03;;
73283;SDS011;61519;60.050;18.582;2022-08-01T11:06:20;4.38;;;1.95;;
73283;SDS011;61519;60.050;18.582;2022-08-01T11:08:50;3.67;;;2.25;;
73283;SDS011;61519;60.050;18.582;2022-08-01T11:11:18;6.32;;;2.00;;
73283;SDS011;61519;60.050;18.582;2022-08-01T11:16:38;3.22;;;1.75;;
73283;SDS011;61519;60.050;18.582;2022-08-01T11:19:04;4.28;;;1.52;;
73283;SDS011;61519;60.050;18.582;2022-08-01T11:24:15;3.05;;;1.27;;
73283;SDS011;61519;60.050;18.582;2022-08-01T11:26:41;2.77;;;1.20;;
73283;SDS011;61519;60.050;18.582;2022-08-01T11:30:21;2.72;;;1.45;;
73283;SDS011;61519;60.050;18.582;2022-08-01T11:32:48;2.65;;;1.17;;
73283;SDS011;61519;60.050;18.582;2022-08-01T11:35:15;4.85;;;2.00;;
73283;SDS011;61519;60.050;18.582;2022-08-01T11:37:41;3.80;;;1.15;;
73283;SDS011;61519;60.050;18.582;2022-08-01T11:40:26;3.13;;;0.80;;
73283;SDS011;61519;60.050;18.582;2022-08-01T11:45:46;4.55;;;1.25;;
73283;SDS011;61519;60.050;18.582;2022-08-01T11:48:19;4.38;;;1.15;;
73283;SDS011;61519;60.050;18.582;2022-08-01T11:50:46;5.55;;;1.10;;
73283;SDS011;61519;60.050;18.582;2022-08-01T11:53:12;2.45;;;1.23;;
73283;SDS011;61519;60.050;18.582;2022-08-01T11:55:47;2.60;;;1.10;;
73283;SDS011;61519;60.050;18.582;2022-08-01T11:58:24;4.80;;;1.10;;
73283;SDS011;61519;60.050;18.582;2022-08-01T12:00:51;3.47;;;1.10;;
73283;SDS011;61519;60.050;18.582;2022-08-01T12:03:23;3.65;;;1.70;;
73283;SDS011;61519;60.050;18.582;2022-08-01T12:05:50;5.63;;;1.08;;
73283;SDS011;61519;60.050;18.582;2022-08-01T12:08:23;3.13;;;1.23;;
73283;SDS011;61519;60.050;18.582;2022-08-01T12:10:52;4.72;;;1.38;;
73283;SDS011;61519;60.050;18.582;2022-08-01T12:13:19;2.92;;;1.25;;
73283;SDS011;61519;60.050;18.582;2022-08-01T12:15:45;3.22;;;1.25;;
73283;SDS011;61519;60.050;18.582;2022-08-01T12:18:10;2.53;;;1.02;;
73283;SDS011;61519;60.050;18.582;2022-08-01T12:20:37;2.73;;;1.00;;
73283;SDS011;61519;60.050;18.582;2022-08-01T12:23:05;5.03;;;1.80;;
73283;SDS011;61519;60.050;18.582;2022-08-01T12:25:32;2.72;;;1.10;;
73283;SDS011;61519;60.050;18.582;2022-08-01T12:28:02;2.80;;;1.50;;
73283;SDS011;61519;60.050;18.582;2022-08-01T12:30:29;2.67;;;1.20;;
73283;SDS011;61519;60.050;18.582;2022-08-01T12:33:05;3.13;;;1.38;;
73283;SDS011;61519;60.050;18.582;2022-08-01T12:35:32;3.40;;;1.23;;
73283;SDS011;61519;60.050;18.582;2022-08-01T12:38:00;3.00;;;1.30;;
73283;SDS011;61519;60.050;18.582;2022-08-01T12:40:31;3.85;;;1.30;;
73283;SDS011;61519;60.050;18.582;2022-08-01T12:42:59;2.90;;;1.40;;
73283;SDS011;61519;60.050;18.582;2022-08-01T12:45:36;4.05;;;1.05;;
73283;SDS011;61519;60.050;18.582;2022-08-01T12:48:11;2.45;;;1.10;;
73283;SDS011;61519;60.050;18.582;2022-08-01T12:50:38;2.80;;;1.10;;
73283;SDS011;61519;60.050;18.582;2022-08-01T12:53:05;3.00;;;1.13;;
73283;SDS011;61519;60.050;18.582;2022-08-01T12:55:30;5.00;;;1.63;;
73283;SDS011;61519;60.050;18.582;2022-08-01T12:58:04;2.70;;;1.10;;
73283;SDS011;61519;60.050;18.582;2022-08-01T13:00:33;4.70;;;1.27;;
73283;SDS011;61519;60.050;18.582;2022-08-01T13:08:17;3.08;;;1.00;;
73283;SDS011;61519;60.050;18.582;2022-08-01T13:10:44;5.60;;;0.90;;
73283;SDS011;61519;60.050;18.582;2022-08-01T13:13:10;4.77;;;1.27;;
73283;SDS011;61519;60.050;18.582;2022-08-01T13:15:36;4.72;;;1.67;;
73283;SDS011;61519;60.050;18.582;2022-08-01T13:21:12;3.70;;;1.30;;
73283;SDS011;61519;60.050;18.582;2022-08-01T13:23:40;5.15;;;1.50;;
73283;SDS011;61519;60.050;18.582;2022-08-01T13:26:47;3.60;;;1.00;;
73283;SDS011;61519;60.050;18.582;2022-08-01T13:29:18;2.80;;;1.10;;
73283;SDS011;61519;60.050;18.582;2022-08-01T13:31:45;3.90;;;1.00;;
73283;SDS011;61519;60.050;18.582;2022-08-01T13:34:11;4.35;;;1.05;;
73283;SDS011;61519;60.050;18.582;2022-08-01T13:36:37;3.83;;;1.43;;
73283;SDS011;61519;60.050;18.582;2022-08-01T13:39:03;4.47;;;1.63;;
73283;SDS011;61519;60.050;18.582;2022-08-01T13:41:48;2.42;;;1.00;;
73283;SDS011;61519;60.050;18.582;2022-08-01T13:44:14;2.40;;;1.00;;
73283;SDS011;61519;60.050;18.582;2022-08-01T13:46:40;3.25;;;1.10;;
73283;SDS011;61519;60.050;18.582;2022-08-01T13:49:07;2.53;;;0.90;;
73283;SDS011;61519;60.050;18.582;2022-08-01T13:51:33;4.85;;;0.90;;
73283;SDS011;61519;60.050;18.582;2022-08-01T13:53:59;3.07;;;1.30;;
73283;SDS011;61519;60.050;18.582;2022-08-01T13:56:25;6.10;;;1.20;;
73283;SDS011;61519;60.050;18.582;2022-08-01T13:58:52;3.35;;;1.17;;
73283;SDS011;61519;60.050;18.582;2022-08-01T14:01:18;2.58;;;1.15;;
73283;SDS011;61519;60.050;18.582;2022-08-01T14:03:44;5.33;;;1.20;;
73283;SDS011;61519;60.050;18.582;2022-08-01T14:06:09;3.60;;;1.10;;
73283;SDS011;61519;60.050;18.582;2022-08-01T14:08:35;5.63;;;1.65;;
73283;SDS011;61519;60.050;18.582;2022-08-01T14:11:00;3.50;;;1.20;;
73283;SDS011;61519;60.050;18.582;2022-08-01T14:13:28;3.70;;;1.10;;
73283;SDS011;61519;60.050;18.582;2022-08-01T14:15:53;5.35;;;1.55;;
73283;SDS011;61519;60.050;18.582;2022-08-01T14:18:19;3.05;;;1.10;;
73283;SDS011;61519;60.050;18.582;2022-08-01T14:20:44;2.60;;;1.23;;
73283;SDS011;61519;60.050;18.582;2022-08-01T14:23:10;3.50;;;1.10;;
73283;SDS011;61519;60.050;18.582;2022-08-01T14:25:36;2.78;;;1.00;;
73283;SDS011;61519;60.050;18.582;2022-08-01T14:28:02;4.13;;;0.90;;
73283;SDS011;61519;60.050;18.582;2022-08-01T14:30:28;5.10;;;1.03;;
73283;SDS011;61519;60.050;18.582;2022-08-01T14:32:54;2.70;;;0.93;;
73283;SDS011;61519;60.050;18.582;2022-08-01T14:35:19;3.00;;;0.90;;
73283;SDS011;61519;60.050;18.582;2022-08-01T14:37:45;3.97;;;1.20;;
73283;SDS011;61519;60.050;18.582;2022-08-01T14:40:10;2.97;;;1.30;;
73283;SDS011;61519;60.050;18.582;2022-08-01T14:42:36;2.50;;;0.90;;
73283;SDS011;61519;60.050;18.582;2022-08-01T14:45:03;2.60;;;1.05;;
73283;SDS011;61519;60.050;18.582;2022-08-01T14:47:33;3.28;;;1.08;;
73283;SDS011;61519;60.050;18.582;2022-08-01T14:49:59;3.63;;;2.20;;
73283;SDS011;61519;60.050;18.582;2022-08-01T14:52:25;5.35;;;3.20;;
73283;SDS011;61519;60.050;18.582;2022-08-01T14:54:50;2.80;;;1.27;;
73283;SDS011;61519;60.050;18.582;2022-08-01T14:57:16;2.83;;;1.00;;
73283;SDS011;61519;60.050;18.582;2022-08-01T14:59:43;3.40;;;1.00;;
73283;SDS011;61519;60.050;18.582;2022-08-01T15:02:08;4.38;;;1.33;;
73283;SDS011;61519;60.050;18.582;2022-08-01T15:04:35;4.03;;;1.10;;
73283;SDS011;61519;60.050;18.582;2022-08-01T15:07:00;4.47;;;1.00;;
73283;SDS011;61519;60.050;18.582;2022-08-01T15:09:26;2.83;;;1.40;;
73283;SDS011;61519;60.050;18.582;2022-08-01T15:11:51;4.57;;;1.73;;
73283;SDS011;61519;60.050;18.582;2022-08-01T15:14:17;3.40;;;1.00;;